Time,TemperatureF,DewpointF,PressureIn,WindDirection,WindDirectionDegrees,WindSpeedMPH,WindSpeedGustMPH,Humidity,HourlyPrecipIn,Conditions,Clouds,dailyrainin,SoftwareType,DateUTC
2013-02-01 00:03:00,31.0,23.0,30.20,SSE,157,9.0,19.0,73,0.00,,,0.09,,2013-02-01 05:03:00,
2013-02-01 00:12:00,31.0,23.0,30.20,SSE,157,9.0,19.0,73,0.00,,,0.09,,2013-02-01 05:12:00,
2013-02-01 00:22:00,31.0,23.0,30.19,SSW,194,7.0,20.0,71,0.00,,,0.09,,2013-02-01 05:22:00,
2013-02-01 00:32:00,31.0,23.0,30.19,South,171,6.0,15.0,72,0.00,,,0.02,,2013-02-01 05:32:00,
2013-02-01 00:42:00,31.0,23.0,30.19,South,171,6.0,15.0,72,0.00,,,0.02,,2013-02-01 05:42:00,
2013-02-01 00:52:00,31.0,23.0,30.19,SSE,165,5.0,13.0,72,0.00,,,0.02,,2013-02-01 05:52:00,
2013-02-01 01:02:00,32.0,24.0,30.19,NE,41,1.0,13.0,72,0.00,,,0.02,,2013-02-01 06:02:00,
2013-02-01 01:12:00,32.0,24.0,30.19,NE,41,1.0,13.0,72,0.00,,,0.02,,2013-02-01 06:12:00,
2013-02-01 01:22:00,32.0,24.0,30.18,ENE,65,4.0,12.0,73,0.00,,,0.02,,2013-02-01 06:22:00,
2013-02-01 01:32:00,32.0,24.0,30.18,ENE,65,4.0,12.0,73,0.00,,,0.02,,2013-02-01 06:32:00,
2013-02-01 01:42:00,32.0,24.0,30.18,ENE,65,4.0,12.0,73,0.00,,,0.02,,2013-02-01 06:42:00,
2013-02-01 01:52:00,32.0,24.0,30.15,SE,129,6.0,12.0,73,0.00,,,0.00,,2013-02-01 06:52:00,
2013-02-01 02:02:00,33.0,25.0,30.14,South,182,5.0,13.0,72,0.00,,,0.00,,2013-02-01 07:02:00,
2013-02-01 02:12:00,33.0,25.0,30.14,South,182,5.0,13.0,72,0.00,,,0.00,,2013-02-01 07:12:00,
2013-02-01 02:22:00,33.0,25.0,30.14,ENE,71,5.0,21.0,71,0.00,,,0.00,,2013-02-01 07:22:00,
2013-02-01 02:32:00,34.0,26.0,30.11,SE,145,10.0,21.0,72,0.00,,,0.00,,2013-02-01 07:32:00,
2013-02-01 02:42:00,34.0,26.0,30.11,SE,145,10.0,21.0,72,0.00,,,0.00,,2013-02-01 07:42:00,
2013-02-01 02:52:00,34.0,26.0,30.13,East,93,5.0,23.0,71,0.00,,,0.00,,2013-02-01 07:52:00,
2013-02-01 03:01:00,34.0,26.0,30.12,SE,138,8.0,16.0,71,0.00,,,0.00,,2013-02-01 08:01:00,
2013-02-01 03:11:00,34.0,26.0,30.12,SE,138,8.0,16.0,71,0.00,,,0.00,,2013-02-01 08:11:00,
2013-02-01 03:21:00,34.0,26.0,30.13,ESE,120,5.0,14.0,73,0.00,,,0.00,,2013-02-01 08:21:00,
2013-02-01 03:32:00,34.0,26.0,30.12,SSE,155,2.0,17.0,72,0.00,,,0.00,,2013-02-01 08:32:00,
2013-02-01 03:42:00,34.0,26.0,30.12,SSE,155,2.0,17.0,72,0.00,,,0.00,,2013-02-01 08:42:00,
2013-02-01 03:52:00,34.0,26.0,30.12,SSE,155,2.0,17.0,72,0.00,,,0.00,,2013-02-01 08:52:00,
2013-02-01 04:02:00,34.0,27.0,30.12,ENE,68,5.0,18.0,76,0.00,,,0.00,,2013-02-01 09:02:00,
2013-02-01 04:11:00,34.0,27.0,30.12,ENE,68,5.0,18.0,76,0.00,,,0.00,,2013-02-01 09:11:00,
2013-02-01 04:22:00,34.0,28.0,30.14,ENE,63,5.0,20.0,80,0.00,,,0.00,,2013-02-01 09:22:00,
2013-02-01 04:32:00,33.0,29.0,30.16,WSW,254,9.0,15.0,84,0.00,,,0.00,,2013-02-01 09:32:00,
2013-02-01 04:42:00,33.0,29.0,30.16,WSW,254,9.0,15.0,84,0.00,,,0.00,,2013-02-01 09:42:00,
2013-02-01 04:51:00,31.0,27.0,30.17,East,95,0.0,15.0,86,0.00,,,0.00,,2013-02-01 09:51:00,
2013-02-01 05:01:00,30.0,26.0,30.17,NW,308,10.0,31.0,85,0.00,,,0.00,,2013-02-01 10:01:00,
2013-02-01 05:11:00,30.0,26.0,30.17,NW,308,10.0,31.0,85,0.00,,,0.00,,2013-02-01 10:11:00,
2013-02-01 05:21:00,29.0,24.0,30.17,WNW,303,16.0,33.0,82,0.00,,,0.00,,2013-02-01 10:21:00,
2013-02-01 05:32:00,28.0,23.0,30.19,SE,137,7.0,27.0,82,0.00,,,0.00,,2013-02-01 10:32:00,
2013-02-01 05:42:00,28.0,23.0,30.19,SE,137,7.0,27.0,82,0.00,,,0.00,,2013-02-01 10:42:00,
2013-02-01 05:53:00,28.0,23.0,30.21,ESE,115,9.0,21.0,80,0.00,,,0.00,,2013-02-01 10:53:00,
2013-02-01 06:02:00,27.0,22.0,30.22,SSW,193,5.0,11.0,80,0.00,,,0.00,,2013-02-01 11:02:00,
2013-02-01 06:11:00,27.0,22.0,30.22,SSW,193,5.0,11.0,80,0.00,,,0.00,,2013-02-01 11:11:00,
2013-02-01 06:22:00,26.0,19.0,30.23,ESE,103,5.0,12.0,76,0.00,,,0.00,,2013-02-01 11:22:00,
2013-02-01 06:32:00,25.0,18.0,30.24,East,85,1.0,10.0,74,0.00,,,0.00,,2013-02-01 11:32:00,
2013-02-01 06:42:00,25.0,18.0,30.24,East,85,1.0,10.0,74,0.00,,,0.00,,2013-02-01 11:42:00,
2013-02-01 06:53:00,24.0,16.0,30.25,ENE,65,2.0,11.0,72,0.00,,,0.00,,2013-02-01 11:53:00,
2013-02-01 07:03:00,23.0,13.0,30.26,SSW,206,9.0,24.0,66,0.00,,,0.00,,2013-02-01 12:03:00,
2013-02-01 07:12:00,23.0,13.0,30.26,SSW,206,9.0,24.0,66,0.00,,,0.00,,2013-02-01 12:12:00,
2013-02-01 07:23:00,23.0,13.0,30.26,SSW,206,9.0,24.0,66,0.00,,,0.00,,2013-02-01 12:23:00,
2013-02-01 07:32:00,21.0,10.0,30.28,WNW,291,8.0,15.0,63,0.00,,,0.00,,2013-02-01 12:32:00,
2013-02-01 07:42:00,21.0,10.0,30.28,WNW,291,8.0,15.0,63,0.00,,,0.00,,2013-02-01 12:42:00,
2013-02-01 07:52:00,20.0,11.0,30.29,West,260,5.0,15.0,68,0.00,,,0.00,,2013-02-01 12:52:00,
2013-02-01 08:02:00,20.0,11.0,30.29,ESE,122,0.0,8.0,69,0.00,,,0.00,,2013-02-01 13:02:00,
2013-02-01 08:12:00,20.0,11.0,30.29,ESE,122,0.0,8.0,69,0.00,,,0.00,,2013-02-01 13:12:00,
2013-02-01 08:22:00,20.0,11.0,30.30,SSE,165,0.0,7.0,68,0.00,,,0.00,,2013-02-01 13:22:00,
2013-02-01 08:33:00,19.0,10.0,30.32,WNW,298,5.0,14.0,67,0.00,,,0.00,,2013-02-01 13:33:00,
2013-02-01 08:42:00,19.0,10.0,30.32,WNW,298,5.0,14.0,67,0.00,,,0.00,,2013-02-01 13:42:00,
2013-02-01 08:53:00,19.0,10.0,30.32,SSW,192,1.0,10.0,68,0.00,,,0.00,,2013-02-01 13:53:00,
2013-02-01 09:03:00,19.0,10.0,30.33,SW,216,3.0,7.0,66,0.00,,,0.00,,2013-02-01 14:03:00,
2013-02-01 09:12:00,19.0,10.0,30.33,SW,216,3.0,7.0,66,0.00,,,0.00,,2013-02-01 14:12:00,
2013-02-01 09:22:00,19.0,12.0,30.34,West,276,2.0,10.0,74,0.00,,,0.00,,2013-02-01 14:22:00,
2013-02-01 09:32:00,19.0,10.0,30.35,SW,233,2.0,10.0,66,0.00,,,0.00,,2013-02-01 14:32:00,
2013-02-01 09:42:00,19.0,10.0,30.35,SW,233,2.0,10.0,66,0.00,,,0.00,,2013-02-01 14:42:00,
2013-02-01 09:52:00,19.0,10.0,30.35,WSW,252,5.0,12.0,67,0.00,,,0.00,,2013-02-01 14:52:00,
2013-02-01 10:03:00,19.0,10.0,30.36,SSW,197,6.0,13.0,68,0.00,,,0.00,,2013-02-01 15:03:00,
2013-02-01 10:12:00,19.0,10.0,30.37,South,190,3.0,12.0,68,0.00,,,0.00,,2013-02-01 15:12:00,
2013-02-01 10:22:00,19.0,10.0,30.37,South,190,3.0,12.0,68,0.00,,,0.00,,2013-02-01 15:22:00,
2013-02-01 10:33:00,19.0,10.0,30.38,WSW,248,10.0,14.0,67,0.00,,,0.00,,2013-02-01 15:33:00,
2013-02-01 10:42:00,19.0,10.0,30.38,WSW,248,10.0,14.0,67,0.00,,,0.00,,2013-02-01 15:42:00,
2013-02-01 10:52:00,19.0,10.0,30.39,SW,219,8.0,13.0,66,0.00,,,0.00,,2013-02-01 15:52:00,
2013-02-01 11:03:00,20.0,10.0,30.39,SSW,210,6.0,13.0,64,0.00,,,0.00,,2013-02-01 16:03:00,
2013-02-01 11:11:00,20.0,9.0,30.40,SSW,200,2.0,7.0,63,0.00,,,0.00,,2013-02-01 16:11:00,
2013-02-01 11:22:00,20.0,9.0,30.40,SSW,200,2.0,7.0,63,0.00,,,0.00,,2013-02-01 16:22:00,
2013-02-01 11:33:00,21.0,10.0,30.40,SSW,203,0.0,3.0,62,0.00,,,0.00,,2013-02-01 16:33:00,
2013-02-01 11:43:00,22.0,11.0,30.40,SW,219,1.0,6.0,63,0.00,,,0.00,,2013-02-01 16:43:00,
2013-02-01 11:52:00,22.0,11.0,30.40,SW,219,1.0,6.0,63,0.00,,,0.00,,2013-02-01 16:52:00,
2013-02-01 12:03:00,23.0,10.0,30.40,SSW,207,1.0,6.0,57,0.00,,,0.00,,2013-02-01 17:03:00,
2013-02-01 12:12:00,23.0,10.0,30.40,SSW,207,1.0,6.0,57,0.00,,,0.00,,2013-02-01 17:12:00,
2013-02-01 12:22:00,23.0,10.0,30.40,South,189,3.0,7.0,58,0.00,,,0.00,,2013-02-01 17:22:00,
2013-02-01 12:32:00,24.0,11.0,30.40,SW,219,4.0,7.0,56,0.00,,,0.00,,2013-02-01 17:32:00,
2013-02-01 12:42:00,24.0,11.0,30.40,SW,219,4.0,7.0,56,0.00,,,0.00,,2013-02-01 17:42:00,
2013-02-01 12:52:00,24.0,10.0,30.40,West,264,1.0,6.0,54,0.00,,,0.00,,2013-02-01 17:52:00,
2013-02-01 13:03:00,25.0,11.0,30.40,South,180,0.0,4.0,55,0.00,,,0.00,,2013-02-01 18:03:00,
2013-02-01 13:12:00,25.0,11.0,30.40,South,180,0.0,4.0,55,0.00,,,0.00,,2013-02-01 18:12:00,
2013-02-01 13:23:00,26.0,10.0,30.40,SE,146,1.0,3.0,51,0.00,,,0.00,,2013-02-01 18:23:00,
2013-02-01 13:32:00,27.0,11.0,30.40,South,176,4.0,9.0,51,0.00,,,0.00,,2013-02-01 18:32:00,
2013-02-01 13:42:00,27.0,11.0,30.40,South,176,4.0,9.0,51,0.00,,,0.00,,2013-02-01 18:42:00,
2013-02-01 13:52:00,27.0,11.0,30.39,West,279,2.0,13.0,50,0.00,,,0.00,,2013-02-01 18:52:00,
2013-02-01 14:03:00,27.0,11.0,30.39,WSW,243,4.0,12.0,50,0.00,,,0.00,,2013-02-01 19:03:00,
2013-02-01 14:12:00,27.0,11.0,30.39,WSW,243,4.0,12.0,50,0.00,,,0.00,,2013-02-01 19:12:00,
2013-02-01 14:22:00,28.0,13.0,30.39,West,278,4.0,14.0,52,0.00,,,0.00,,2013-02-01 19:22:00,
2013-02-01 14:32:00,29.0,10.0,30.39,SW,225,4.0,10.0,45,0.00,,,0.00,,2013-02-01 19:32:00,
2013-02-01 14:42:00,29.0,10.0,30.39,SW,225,4.0,10.0,45,0.00,,,0.00,,2013-02-01 19:42:00,
2013-02-01 14:51:00,29.0,12.0,30.38,SSW,212,2.0,13.0,48,0.00,,,0.00,,2013-02-01 19:51:00,
2013-02-01 15:02:00,29.0,10.0,30.39,WSW,250,4.0,10.0,44,0.00,,,0.00,,2013-02-01 20:02:00,
2013-02-01 15:11:00,29.0,10.0,30.39,WSW,250,4.0,10.0,44,0.00,,,0.00,,2013-02-01 20:11:00,
2013-02-01 15:22:00,30.0,12.0,30.40,SSW,209,1.0,13.0,47,0.00,,,0.00,,2013-02-01 20:22:00,
2013-02-01 15:32:00,30.0,8.0,30.39,SE,146,3.0,9.0,38,0.00,,,0.00,,2013-02-01 20:32:00,
2013-02-01 15:42:00,30.0,8.0,30.39,SE,146,3.0,9.0,38,0.00,,,0.00,,2013-02-01 20:42:00,
2013-02-01 15:52:00,30.0,11.0,30.39,NW,305,2.0,7.0,44,0.00,,,0.00,,2013-02-01 20:52:00,
2013-02-01 16:02:00,31.0,15.0,30.39,West,276,1.0,7.0,50,0.00,,,0.00,,2013-02-01 21:02:00,
2013-02-01 16:22:00,31.0,8.0,30.39,North,359,0.0,8.0,38,0.00,,,0.00,,2013-02-01 21:22:00,
2013-02-01 16:32:00,31.0,14.0,30.40,WNW,284,3.0,8.0,49,0.00,,,0.00,,2013-02-01 21:32:00,
2013-02-01 16:52:00,30.0,12.0,30.41,West,261,2.0,10.0,46,0.00,,,0.00,,2013-02-01 21:52:00,
2013-02-01 17:02:00,30.0,9.0,30.42,NW,314,7.0,16.0,40,0.00,,,0.00,,2013-02-01 22:02:00,
2013-02-01 17:11:00,30.0,9.0,30.42,NW,314,7.0,16.0,40,0.00,,,0.00,,2013-02-01 22:11:00,
2013-02-01 17:22:00,28.0,5.0,30.42,SW,233,7.0,15.0,37,0.00,,,0.00,,2013-02-01 22:22:00,
2013-02-01 17:32:00,26.0,7.0,30.42,NNW,333,3.0,12.0,43,0.00,,,0.00,,2013-02-01 22:32:00,
2013-02-01 17:42:00,26.0,7.0,30.42,NNW,333,3.0,12.0,43,0.00,,,0.00,,2013-02-01 22:42:00,
2013-02-01 17:52:00,26.0,5.0,30.42,WSW,248,9.0,16.0,40,0.00,,,0.00,,2013-02-01 22:52:00,
2013-02-01 18:02:00,25.0,9.0,30.42,West,281,7.0,11.0,51,0.00,,,0.00,,2013-02-01 23:02:00,
2013-02-01 18:11:00,25.0,9.0,30.42,West,281,7.0,11.0,51,0.00,,,0.00,,2013-02-01 23:11:00,
2013-02-01 18:22:00,24.0,10.0,30.41,West,272,5.0,12.0,54,0.00,,,0.00,,2013-02-01 23:22:00,
2013-02-01 18:32:00,24.0,9.0,30.42,WSW,246,0.0,11.0,52,0.00,,,0.00,,2013-02-01 23:32:00,
2013-02-01 18:42:00,24.0,9.0,30.42,WSW,246,0.0,11.0,52,0.00,,,0.00,,2013-02-01 23:42:00,
2013-02-01 18:52:00,23.0,7.0,30.43,WSW,245,0.0,7.0,49,0.00,,,0.00,,2013-02-01 23:52:00,
2013-02-01 19:02:00,23.0,8.0,30.44,West,259,2.0,7.0,53,0.00,,,0.00,,2013-02-02 00:02:00,
2013-02-01 19:11:00,23.0,8.0,30.44,West,259,2.0,7.0,53,0.00,,,0.00,,2013-02-02 00:11:00,
2013-02-01 19:22:00,22.0,7.0,30.45,WSW,252,2.0,10.0,51,0.00,,,0.00,,2013-02-02 00:22:00,
2013-02-01 19:32:00,22.0,5.0,30.46,West,272,1.0,5.0,48,0.00,,,0.00,,2013-02-02 00:32:00,
2013-02-01 19:42:00,22.0,5.0,30.46,West,272,1.0,5.0,48,0.00,,,0.00,,2013-02-02 00:42:00,
2013-02-01 19:52:00,22.0,8.0,30.46,WNW,283,0.0,3.0,53,0.00,,,0.00,,2013-02-02 00:52:00,
2013-02-01 20:03:00,22.0,8.0,30.46,WNW,283,0.0,3.0,53,0.00,,,0.00,,2013-02-02 01:03:00,
2013-02-01 20:11:00,22.0,8.0,30.46,WNW,283,0.0,3.0,53,0.00,,,0.00,,2013-02-02 01:11:00,
2013-02-01 20:21:00,21.0,6.0,30.47,SW,234,1.0,5.0,52,0.00,,,0.00,,2013-02-02 01:21:00,
2013-02-01 20:32:00,21.0,5.0,30.47,SSE,168,1.0,9.0,49,0.00,,,0.00,,2013-02-02 01:32:00,
2013-02-01 20:42:00,21.0,5.0,30.47,SSE,168,1.0,9.0,49,0.00,,,0.00,,2013-02-02 01:42:00,
2013-02-01 20:52:00,20.0,3.0,30.47,West,264,1.0,3.0,46,0.00,,,0.00,,2013-02-02 01:52:00,
2013-02-01 21:01:00,20.0,4.0,30.47,WNW,300,3.0,9.0,50,0.00,,,0.00,,2013-02-02 02:01:00,
2013-02-01 21:11:00,20.0,4.0,30.47,WNW,300,3.0,9.0,50,0.00,,,0.00,,2013-02-02 02:11:00,
2013-02-01 21:22:00,20.0,4.0,30.47,WSW,248,1.0,9.0,49,0.00,,,0.00,,2013-02-02 02:22:00,
2013-02-01 21:32:00,20.0,4.0,30.48,NW,317,2.0,4.0,48,0.00,,,0.00,,2013-02-02 02:32:00,
2013-02-01 21:42:00,20.0,4.0,30.48,NW,317,2.0,4.0,48,0.00,,,0.00,,2013-02-02 02:42:00,
2013-02-01 21:52:00,20.0,3.0,30.48,West,260,1.0,3.0,46,0.00,,,0.00,,2013-02-02 02:52:00,
2013-02-01 22:02:00,20.0,3.0,30.49,West,259,0.0,1.0,46,0.00,,,0.00,,2013-02-02 03:02:00,
2013-02-01 22:11:00,20.0,3.0,30.49,West,259,0.0,1.0,46,0.00,,,0.00,,2013-02-02 03:11:00,
2013-02-01 22:22:00,19.0,4.0,30.48,West,259,0.0,1.0,51,0.00,,,0.00,,2013-02-02 03:22:00,
2013-02-01 22:32:00,19.0,3.0,30.49,WSW,238,0.0,2.0,49,0.00,,,0.00,,2013-02-02 03:32:00,
2013-02-01 22:42:00,18.0,3.0,30.49,WSW,238,0.0,2.0,52,0.00,,,0.00,,2013-02-02 03:42:00,
2013-02-01 22:52:00,18.0,3.0,30.49,WSW,238,0.0,2.0,52,0.00,,,0.00,,2013-02-02 03:52:00,
2013-02-01 23:02:00,18.0,4.0,30.49,WSW,238,0.0,0.0,53,0.00,,,0.00,,2013-02-02 04:02:00,
2013-02-01 23:11:00,18.0,4.0,30.49,WSW,238,0.0,0.0,53,0.00,,,0.00,,2013-02-02 04:11:00,
2013-02-01 23:22:00,18.0,4.0,30.49,WSW,238,0.0,0.0,53,0.00,,,0.00,,2013-02-02 04:22:00,
2013-02-01 23:32:00,18.0,4.0,30.49,WSW,238,0.0,0.0,53,0.00,,,0.00,,2013-02-02 04:32:00,
2013-02-01 23:42:00,18.0,4.0,30.49,WSW,238,0.0,0.0,53,0.00,,,0.00,,2013-02-02 04:42:00,
2013-02-01 23:52:00,18.0,5.0,30.51,WSW,238,0.0,2.0,55,0.00,,,0.00,,2013-02-02 04:52:00,